sensor_id;sensor_type;location;lat;lon;timestamp;temperature;humidity
20839;DHT22;10580;51.092;6.828;2023-11-19T00:00:26;10.70;99.90
20839;DHT22;10580;51.092;6.828;2023-11-19T00:02:52;10.70;99.90
20839;DHT22;10580;51.092;6.828;2023-11-19T00:05:18;10.80;99.90
20839;DHT22;10580;51.092;6.828;2023-11-19T00:07:43;10.80;99.90
20839;DHT22;10580;51.092;6.828;2023-11-19T00:10:13;10.90;99.90
20839;DHT22;10580;51.092;6.828;2023-11-19T00:12:44;10.90;99.90
20839;DHT22;10580;51.092;6.828;2023-11-19T00:15:10;10.90;99.90
20839;DHT22;10580;51.092;6.828;2023-11-19T00:17:39;11.00;99.90
20839;DHT22;10580;51.092;6.828;2023-11-19T00:20:15;11.00;99.90
20839;DHT22;10580;51.092;6.828;2023-11-19T00:22:41;11.10;99.90
20839;DHT22;10580;51.092;6.828;2023-11-19T00:25:08;11.10;99.90
20839;DHT22;10580;51.092;6.828;2023-11-19T00:27:34;11.10;99.90
20839;DHT22;10580;51.092;6.828;2023-11-19T00:29:59;11.20;99.90
20839;DHT22;10580;51.092;6.828;2023-11-19T00:32:25;11.20;99.90
20839;DHT22;10580;51.092;6.828;2023-11-19T00:34:51;11.20;99.90
20839;DHT22;10580;51.092;6.828;2023-11-19T00:37:16;11.20;99.90
20839;DHT22;10580;51.092;6.828;2023-11-19T00:39:42;11.30;99.90
20839;DHT22;10580;51.092;6.828;2023-11-19T00:42:09;11.20;99.90
20839;DHT22;10580;51.092;6.828;2023-11-19T00:44:35;11.30;99.90
20839;DHT22;10580;51.092;6.828;2023-11-19T00:47:01;11.30;99.90
20839;DHT22;10580;51.092;6.828;2023-11-19T00:49:27;11.20;99.90
20839;DHT22;10580;51.092;6.828;2023-11-19T00:51:52;11.30;99.90
20839;DHT22;10580;51.092;6.828;2023-11-19T00:54:18;11.30;99.90
20839;DHT22;10580;51.092;6.828;2023-11-19T00:56:43;11.50;99.90
20839;DHT22;10580;51.092;6.828;2023-11-19T00:59:10;11.50;99.90
20839;DHT22;10580;51.092;6.828;2023-11-19T01:01:35;11.50;99.90
20839;DHT22;10580;51.092;6.828;2023-11-19T01:04:01;11.60;99.90
20839;DHT22;10580;51.092;6.828;2023-11-19T01:06:30;11.60;99.90
20839;DHT22;10580;51.092;6.828;2023-11-19T01:08:56;11.70;99.90
20839;DHT22;10580;51.092;6.828;2023-11-19T01:11:22;11.70;99.90
20839;DHT22;10580;51.092;6.828;2023-11-19T01:13:49;11.70;99.90
20839;DHT22;10580;51.092;6.828;2023-11-19T01:16:15;11.70;99.90
20839;DHT22;10580;51.092;6.828;2023-11-19T01:18:41;11.80;99.90
20839;DHT22;10580;51.092;6.828;2023-11-19T01:21:06;11.90;99.90
20839;DHT22;10580;51.092;6.828;2023-11-19T01:23:32;12.00;99.90
20839;DHT22;10580;51.092;6.828;2023-11-19T01:25:58;12.00;99.90
20839;DHT22;10580;51.092;6.828;2023-11-19T01:28:23;12.00;99.90
20839;DHT22;10580;51.092;6.828;2023-11-19T01:30:52;12.00;99.90
20839;DHT22;10580;51.092;6.828;2023-11-19T01:33:18;12.00;99.90
20839;DHT22;10580;51.092;6.828;2023-11-19T01:35:44;12.10;99.90
20839;DHT22;10580;51.092;6.828;2023-11-19T01:38:10;12.10;99.90
20839;DHT22;10580;51.092;6.828;2023-11-19T01:40:36;12.20;99.90
20839;DHT22;10580;51.092;6.828;2023-11-19T01:43:02;12.20;99.90
20839;DHT22;10580;51.092;6.828;2023-11-19T01:45:29;12.20;99.90
20839;DHT22;10580;51.092;6.828;2023-11-19T01:47:59;12.20;99.90
20839;DHT22;10580;51.092;6.828;2023-11-19T01:50:25;12.20;99.90
20839;DHT22;10580;51.092;6.828;2023-11-19T01:52:55;12.30;99.90
20839;DHT22;10580;51.092;6.828;2023-11-19T01:55:24;12.30;99.90
20839;DHT22;10580;51.092;6.828;2023-11-19T01:57:50;12.30;99.90
20839;DHT22;10580;51.092;6.828;2023-11-19T02:00:18;12.30;99.90
20839;DHT22;10580;51.092;6.828;2023-11-19T02:02:46;12.30;99.90
20839;DHT22;10580;51.092;6.828;2023-11-19T02:05:12;12.30;99.90
20839;DHT22;10580;51.092;6.828;2023-11-19T02:07:38;12.40;99.90
20839;DHT22;10580;51.092;6.828;2023-11-19T02:10:05;12.50;99.90
20839;DHT22;10580;51.092;6.828;2023-11-19T02:12:31;12.60;99.90
20839;DHT22;10580;51.092;6.828;2023-11-19T02:15:01;12.70;99.90
20839;DHT22;10580;51.092;6.828;2023-11-19T02:17:29;12.70;99.90
20839;DHT22;10580;51.092;6.828;2023-11-19T02:19:57;12.60;99.90
20839;DHT22;10580;51.092;6.828;2023-11-19T02:22:22;12.60;99.90
20839;DHT22;10580;51.092;6.828;2023-11-19T02:24:51;12.70;99.90
20839;DHT22;10580;51.092;6.828;2023-11-19T02:30:06;12.60;99.90
20839;DHT22;10580;51.092;6.828;2023-11-19T02:32:34;12.70;99.90
20839;DHT22;10580;51.092;6.828;2023-11-19T02:35:01;12.70;99.90
20839;DHT22;10580;51.092;6.828;2023-11-19T02:37:26;12.70;99.90
20839;DHT22;10580;51.092;6.828;2023-11-19T02:39:53;12.70;99.90
20839;DHT22;10580;51.092;6.828;2023-11-19T02:42:19;12.70;99.90
20839;DHT22;10580;51.092;6.828;2023-11-19T02:44:45;12.60;99.90
20839;DHT22;10580;51.092;6.828;2023-11-19T02:47:11;12.60;99.90
20839;DHT22;10580;51.092;6.828;2023-11-19T02:49:37;12.50;99.90
20839;DHT22;10580;51.092;6.828;2023-11-19T02:52:03;12.50;99.90
20839;DHT22;10580;51.092;6.828;2023-11-19T02:54:30;12.50;99.90
20839;DHT22;10580;51.092;6.828;2023-11-19T02:57:00;12.60;99.90
20839;DHT22;10580;51.092;6.828;2023-11-19T02:59:27;12.60;99.90
20839;DHT22;10580;51.092;6.828;2023-11-19T03:01:53;12.60;99.90
20839;DHT22;10580;51.092;6.828;2023-11-19T03:04:20;12.60;99.90
20839;DHT22;10580;51.092;6.828;2023-11-19T03:06:46;12.70;99.90
20839;DHT22;10580;51.092;6.828;2023-11-19T03:09:12;12.70;99.90
20839;DHT22;10580;51.092;6.828;2023-11-19T03:11:37;12.80;99.90
20839;DHT22;10580;51.092;6.828;2023-11-19T03:14:03;12.70;98.80
20839;DHT22;10580;51.092;6.828;2023-11-19T03:16:29;12.70;96.70
20839;DHT22;10580;51.092;6.828;2023-11-19T03:18:54;12.80;85.60
20839;DHT22;10580;51.092;6.828;2023-11-19T03:21:30;12.90;75.20
20839;DHT22;10580;51.092;6.828;2023-11-19T03:23:59;12.80;73.60
20839;DHT22;10580;51.092;6.828;2023-11-19T03:26:28;12.80;63.10
20839;DHT22;10580;51.092;6.828;2023-11-19T03:28:53;12.80;59.40
20839;DHT22;10580;51.092;6.828;2023-11-19T03:31:19;12.90;57.00
20839;DHT22;10580;51.092;6.828;2023-11-19T03:33:45;12.80;53.30
20839;DHT22;10580;51.092;6.828;2023-11-19T03:36:12;12.90;49.10
20839;DHT22;10580;51.092;6.828;2023-11-19T03:38:38;12.80;45.50
20839;DHT22;10580;51.092;6.828;2023-11-19T03:41:13;12.90;36.90
20839;DHT22;10580;51.092;6.828;2023-11-19T03:43:39;12.90;30.90
20839;DHT22;10580;51.092;6.828;2023-11-19T03:46:15;12.80;28.60
20839;DHT22;10580;51.092;6.828;2023-11-19T03:48:40;13.00;14.40
20839;DHT22;10580;51.092;6.828;2023-11-19T03:51:06;13.00;6.70
20839;DHT22;10580;51.092;6.828;2023-11-19T03:53:31;13.00;2.70
20839;DHT22;10580;51.092;6.828;2023-11-19T03:55:57;12.90;5.80
20839;DHT22;10580;51.092;6.828;2023-11-19T03:58:22;12.90;2.80
20839;DHT22;10580;51.092;6.828;2023-11-19T04:00:48;12.90;1.00
20839;DHT22;10580;51.092;6.828;2023-11-19T04:03:13;12.90;1.00
20839;DHT22;10580;51.092;6.828;2023-11-19T04:05:39;12.80;1.00
20839;DHT22;10580;51.092;6.828;2023-11-19T04:08:04;12.70;4.40
20839;DHT22;10580;51.092;6.828;2023-11-19T04:10:30;12.70;7.70
20839;DHT22;10580;51.092;6.828;2023-11-19T04:12:56;12.70;9.10
20839;DHT22;10580;51.092;6.828;2023-11-19T04:15:21;12.60;13.50
20839;DHT22;10580;51.092;6.828;2023-11-19T04:17:47;12.50;17.40
20839;DHT22;10580;51.092;6.828;2023-11-19T04:20:14;12.50;18.80
20839;DHT22;10580;51.092;6.828;2023-11-19T04:22:39;12.50;18.70
20839;DHT22;10580;51.092;6.828;2023-11-19T04:25:05;12.50;21.60
20839;DHT22;10580;51.092;6.828;2023-11-19T04:27:31;12.40;23.80
20839;DHT22;10580;51.092;6.828;2023-11-19T04:29:57;12.40;27.00
20839;DHT22;10580;51.092;6.828;2023-11-19T04:32:22;12.30;30.50
20839;DHT22;10580;51.092;6.828;2023-11-19T04:34:48;12.30;35.70
20839;DHT22;10580;51.092;6.828;2023-11-19T04:37:13;12.20;40.60
20839;DHT22;10580;51.092;6.828;2023-11-19T04:39:39;12.20;39.70
20839;DHT22;10580;51.092;6.828;2023-11-19T04:42:04;12.20;35.50
20839;DHT22;10580;51.092;6.828;2023-11-19T04:44:31;12.30;26.90
20839;DHT22;10580;51.092;6.828;2023-11-19T04:46:57;12.30;21.30
20839;DHT22;10580;51.092;6.828;2023-11-19T04:49:22;12.30;16.60
20839;DHT22;10580;51.092;6.828;2023-11-19T04:51:48;12.30;13.30
20839;DHT22;10580;51.092;6.828;2023-11-19T04:54:14;12.30;13.30
20839;DHT22;10580;51.092;6.828;2023-11-19T04:56:40;12.30;4.70
20839;DHT22;10580;51.092;6.828;2023-11-19T04:59:06;12.30;3.90
20839;DHT22;10580;51.092;6.828;2023-11-19T05:01:35;12.30;4.30
20839;DHT22;10580;51.092;6.828;2023-11-19T05:04:01;12.30;1.00
20839;DHT22;10580;51.092;6.828;2023-11-19T05:06:30;12.30;1.00
20839;DHT22;10580;51.092;6.828;2023-11-19T05:08:57;12.40;1.00
20839;DHT22;10580;51.092;6.828;2023-11-19T05:11:23;12.40;1.00
20839;DHT22;10580;51.092;6.828;2023-11-19T05:13:49;12.40;1.00
20839;DHT22;10580;51.092;6.828;2023-11-19T05:16:15;12.40;1.00
20839;DHT22;10580;51.092;6.828;2023-11-19T05:18:41;12.40;1.00
20839;DHT22;10580;51.092;6.828;2023-11-19T05:21:07;12.30;1.00
20839;DHT22;10580;51.092;6.828;2023-11-19T05:23:33;12.30;1.00
20839;DHT22;10580;51.092;6.828;2023-11-19T05:26:02;12.30;1.00
20839;DHT22;10580;51.092;6.828;2023-11-19T05:28:27;12.30;1.00
20839;DHT22;10580;51.092;6.828;2023-11-19T05:30:54;12.20;1.00
20839;DHT22;10580;51.092;6.828;2023-11-19T05:33:19;12.20;1.00
20839;DHT22;10580;51.092;6.828;2023-11-19T05:35:45;12.20;1.00
20839;DHT22;10580;51.092;6.828;2023-11-19T05:38:11;12.10;1.00
20839;DHT22;10580;51.092;6.828;2023-11-19T05:40:37;12.10;1.00
20839;DHT22;10580;51.092;6.828;2023-11-19T05:43:04;12.10;1.00
20839;DHT22;10580;51.092;6.828;2023-11-19T05:45:30;12.00;1.00
20839;DHT22;10580;51.092;6.828;2023-11-19T05:47:56;12.00;1.00
20839;DHT22;10580;51.092;6.828;2023-11-19T05:50:22;12.00;1.00
20839;DHT22;10580;51.092;6.828;2023-11-19T05:52:47;11.90;1.00
20839;DHT22;10580;51.092;6.828;2023-11-19T05:55:13;12.00;1.00
20839;DHT22;10580;51.092;6.828;2023-11-19T05:57:39;12.00;1.00
20839;DHT22;10580;51.092;6.828;2023-11-19T06:00:08;12.00;1.00
20839;DHT22;10580;51.092;6.828;2023-11-19T06:02:35;11.90;1.00
20839;DHT22;10580;51.092;6.828;2023-11-19T06:05:03;12.00;1.00
20839;DHT22;10580;51.092;6.828;2023-11-19T06:07:31;12.00;1.00
20839;DHT22;10580;51.092;6.828;2023-11-19T06:09:56;11.90;1.00
20839;DHT22;10580;51.092;6.828;2023-11-19T06:12:22;11.90;1.00
20839;DHT22;10580;51.092;6.828;2023-11-19T06:14:47;12.00;1.00
20839;DHT22;10580;51.092;6.828;2023-11-19T06:17:13;11.90;1.00
20839;DHT22;10580;51.092;6.828;2023-11-19T06:19:39;11.90;1.00
20839;DHT22;10580;51.092;6.828;2023-11-19T06:22:04;11.90;1.00
20839;DHT22;10580;51.092;6.828;2023-11-19T06:24:30;11.90;1.00
20839;DHT22;10580;51.092;6.828;2023-11-19T06:26:55;12.00;1.00
20839;DHT22;10580;51.092;6.828;2023-11-19T06:29:21;11.90;1.00
20839;DHT22;10580;51.092;6.828;2023-11-19T06:31:47;11.90;1.00
20839;DHT22;10580;51.092;6.828;2023-11-19T06:34:15;11.80;1.00
20839;DHT22;10580;51.092;6.828;2023-11-19T06:36:41;11.80;1.00
20839;DHT22;10580;51.092;6.828;2023-11-19T06:39:09;11.90;1.00
20839;DHT22;10580;51.092;6.828;2023-11-19T06:41:34;11.80;1.00
20839;DHT22;10580;51.092;6.828;2023-11-19T06:44:00;11.90;1.00
20839;DHT22;10580;51.092;6.828;2023-11-19T06:46:25;11.80;1.00
20839;DHT22;10580;51.092;6.828;2023-11-19T06:48:51;11.90;1.00
20839;DHT22;10580;51.092;6.828;2023-11-19T06:51:16;11.80;1.00
20839;DHT22;10580;51.092;6.828;2023-11-19T06:53:45;11.80;1.00
20839;DHT22;10580;51.092;6.828;2023-11-19T06:56:21;11.70;1.00
20839;DHT22;10580;51.092;6.828;2023-11-19T06:58:47;11.80;1.00
20839;DHT22;10580;51.092;6.828;2023-11-19T07:01:14;11.70;1.00
20839;DHT22;10580;51.092;6.828;2023-11-19T07:03:40;11.80;1.00
20839;DHT22;10580;51.092;6.828;2023-11-19T07:06:06;11.70;1.00
20839;DHT22;10580;51.092;6.828;2023-11-19T07:08:31;11.70;1.00
20839;DHT22;10580;51.092;6.828;2023-11-19T07:10:57;11.60;1.00
20839;DHT22;10580;51.092;6.828;2023-11-19T07:13:23;11.70;1.00
20839;DHT22;10580;51.092;6.828;2023-11-19T07:15:48;11.60;1.00
20839;DHT22;10580;51.092;6.828;2023-11-19T07:18:14;11.50;1.00
20839;DHT22;10580;51.092;6.828;2023-11-19T07:20:40;11.60;1.00
20839;DHT22;10580;51.092;6.828;2023-11-19T07:23:06;11.60;1.00
20839;DHT22;10580;51.092;6.828;2023-11-19T07:25:31;11.70;1.00
20839;DHT22;10580;51.092;6.828;2023-11-19T07:27:57;11.70;1.00
20839;DHT22;10580;51.092;6.828;2023-11-19T07:30:22;11.70;1.00
20839;DHT22;10580;51.092;6.828;2023-11-19T07:32:48;11.70;1.00
20839;DHT22;10580;51.092;6.828;2023-11-19T07:35:14;11.70;1.00
20839;DHT22;10580;51.092;6.828;2023-11-19T07:37:41;11.70;1.00
20839;DHT22;10580;51.092;6.828;2023-11-19T07:40:07;11.70;1.00
20839;DHT22;10580;51.092;6.828;2023-11-19T07:42:33;11.70;1.00
20839;DHT22;10580;51.092;6.828;2023-11-19T07:44:59;11.70;1.00
20839;DHT22;10580;51.092;6.828;2023-11-19T07:47:24;11.80;1.00
20839;DHT22;10580;51.092;6.828;2023-11-19T07:49:50;11.80;1.00
20839;DHT22;10580;51.092;6.828;2023-11-19T07:52:16;11.80;1.00
20839;DHT22;10580;51.092;6.828;2023-11-19T07:54:41;11.80;1.00
20839;DHT22;10580;51.092;6.828;2023-11-19T07:57:07;11.90;1.00
20839;DHT22;10580;51.092;6.828;2023-11-19T07:59:32;11.90;1.00
20839;DHT22;10580;51.092;6.828;2023-11-19T08:01:58;12.00;1.00
20839;DHT22;10580;51.092;6.828;2023-11-19T08:04:23;12.10;1.00
20839;DHT22;10580;51.092;6.828;2023-11-19T08:06:49;12.10;1.00
20839;DHT22;10580;51.092;6.828;2023-11-19T08:09:14;12.10;1.00
20839;DHT22;10580;51.092;6.828;2023-11-19T08:11:41;12.20;1.00
20839;DHT22;10580;51.092;6.828;2023-11-19T08:14:06;12.30;1.00
20839;DHT22;10580;51.092;6.828;2023-11-19T08:16:32;12.40;1.00
20839;DHT22;10580;51.092;6.828;2023-11-19T08:18:57;12.60;1.00
20839;DHT22;10580;51.092;6.828;2023-11-19T08:21:23;12.80;1.00
20839;DHT22;10580;51.092;6.828;2023-11-19T08:23:49;13.00;1.00
20839;DHT22;10580;51.092;6.828;2023-11-19T08:26:15;13.20;1.00
20839;DHT22;10580;51.092;6.828;2023-11-19T08:28:41;13.50;1.00
20839;DHT22;10580;51.092;6.828;2023-11-19T08:31:06;13.90;1.00
20839;DHT22;10580;51.092;6.828;2023-11-19T08:33:32;14.00;1.00
20839;DHT22;10580;51.092;6.828;2023-11-19T08:35:58;13.90;1.00
20839;DHT22;10580;51.092;6.828;2023-11-19T08:38:24;13.70;1.00
20839;DHT22;10580;51.092;6.828;2023-11-19T08:40:50;13.50;1.00
20839;DHT22;10580;51.092;6.828;2023-11-19T08:43:16;13.60;1.00
20839;DHT22;10580;51.092;6.828;2023-11-19T08:45:41;13.70;1.00
20839;DHT22;10580;51.092;6.828;2023-11-19T08:48:07;14.10;1.00
20839;DHT22;10580;51.092;6.828;2023-11-19T08:50:32;13.90;99.90
20839;DHT22;10580;51.092;6.828;2023-11-19T08:52:58;13.80;1.00
20839;DHT22;10580;51.092;6.828;2023-11-19T08:55:24;13.80;99.90
20839;DHT22;10580;51.092;6.828;2023-11-19T08:57:49;13.80;99.90
20839;DHT22;10580;51.092;6.828;2023-11-19T09:00:15;13.90;99.90
20839;DHT22;10580;51.092;6.828;2023-11-19T09:02:40;13.90;99.90
20839;DHT22;10580;51.092;6.828;2023-11-19T09:05:06;14.00;99.90
20839;DHT22;10580;51.092;6.828;2023-11-19T09:07:35;14.10;99.90
20839;DHT22;10580;51.092;6.828;2023-11-19T09:10:07;14.10;99.90
20839;DHT22;10580;51.092;6.828;2023-11-19T09:12:34;13.80;99.90
20839;DHT22;10580;51.092;6.828;2023-11-19T09:14:59;13.50;99.90
20839;DHT22;10580;51.092;6.828;2023-11-19T09:17:28;13.40;99.90
20839;DHT22;10580;51.092;6.828;2023-11-19T09:19:54;13.50;99.90
20839;DHT22;10580;51.092;6.828;2023-11-19T09:22:19;13.60;99.90
20839;DHT22;10580;51.092;6.828;2023-11-19T09:24:45;13.50;99.90
20839;DHT22;10580;51.092;6.828;2023-11-19T09:27:14;13.50;99.90
20839;DHT22;10580;51.092;6.828;2023-11-19T09:29:39;13.70;99.90
20839;DHT22;10580;51.092;6.828;2023-11-19T09:32:05;13.80;99.90
20839;DHT22;10580;51.092;6.828;2023-11-19T09:34:31;13.70;99.90
20839;DHT22;10580;51.092;6.828;2023-11-19T09:36:57;13.90;99.90
20839;DHT22;10580;51.092;6.828;2023-11-19T09:39:22;13.90;87.40
20839;DHT22;10580;51.092;6.828;2023-11-19T09:41:48;13.80;99.90
20839;DHT22;10580;51.092;6.828;2023-11-19T09:44:14;13.60;99.90
20839;DHT22;10580;51.092;6.828;2023-11-19T09:46:43;13.50;99.90
20839;DHT22;10580;51.092;6.828;2023-11-19T09:49:10;13.30;99.90
20839;DHT22;10580;51.092;6.828;2023-11-19T09:51:37;13.30;99.90
20839;DHT22;10580;51.092;6.828;2023-11-19T09:54:02;13.30;99.90
20839;DHT22;10580;51.092;6.828;2023-11-19T09:56:29;13.30;99.90
20839;DHT22;10580;51.092;6.828;2023-11-19T09:58:59;13.30;99.90
20839;DHT22;10580;51.092;6.828;2023-11-19T10:01:24;13.30;99.90
20839;DHT22;10580;51.092;6.828;2023-11-19T10:03:50;13.40;99.90
20839;DHT22;10580;51.092;6.828;2023-11-19T10:06:17;13.50;99.90
20839;DHT22;10580;51.092;6.828;2023-11-19T10:08:44;13.60;99.90
20839;DHT22;10580;51.092;6.828;2023-11-19T10:11:10;13.60;99.90
20839;DHT22;10580;51.092;6.828;2023-11-19T10:13:38;13.70;99.90
20839;DHT22;10580;51.092;6.828;2023-11-19T10:16:07;13.80;99.90
20839;DHT22;10580;51.092;6.828;2023-11-19T10:18:34;13.90;99.90
20839;DHT22;10580;51.092;6.828;2023-11-19T10:21:04;13.90;99.90
20839;DHT22;10580;51.092;6.828;2023-11-19T10:23:30;13.90;84.50
20839;DHT22;10580;51.092;6.828;2023-11-19T10:26:02;13.90;99.90
20839;DHT22;10580;51.092;6.828;2023-11-19T10:28:39;13.90;99.90
20839;DHT22;10580;51.092;6.828;2023-11-19T10:31:05;13.90;54.40
20839;DHT22;10580;51.092;6.828;2023-11-19T10:33:31;13.80;96.10
20839;DHT22;10580;51.092;6.828;2023-11-19T10:35:57;13.80;99.40
20839;DHT22;10580;51.092;6.828;2023-11-19T10:38:26;13.80;56.10
20839;DHT22;10580;51.092;6.828;2023-11-19T10:40:52;13.80;74.00
20839;DHT22;10580;51.092;6.828;2023-11-19T10:43:19;13.90;1.00
20839;DHT22;10580;51.092;6.828;2023-11-19T10:45:45;13.90;1.00
20839;DHT22;10580;51.092;6.828;2023-11-19T10:48:11;14.00;1.00
20839;DHT22;10580;51.092;6.828;2023-11-19T10:50:39;14.00;1.00
20839;DHT22;10580;51.092;6.828;2023-11-19T10:53:06;14.00;1.00
20839;DHT22;10580;51.092;6.828;2023-11-19T10:55:37;14.00;1.00
20839;DHT22;10580;51.092;6.828;2023-11-19T10:58:16;14.00;1.00
20839;DHT22;10580;51.092;6.828;2023-11-19T11:00:51;13.90;1.00
20839;DHT22;10580;51.092;6.828;2023-11-19T11:03:19;13.90;1.00
20839;DHT22;10580;51.092;6.828;2023-11-19T11:05:47;13.80;1.00
20839;DHT22;10580;51.092;6.828;2023-11-19T11:08:13;13.70;1.00
20839;DHT22;10580;51.092;6.828;2023-11-19T11:10:59;13.60;1.00
20839;DHT22;10580;51.092;6.828;2023-11-19T11:13:25;13.60;1.00
20839;DHT22;10580;51.092;6.828;2023-11-19T11:15:55;13.50;1.00
20839;DHT22;10580;51.092;6.828;2023-11-19T11:18:24;13.40;99.90
20839;DHT22;10580;51.092;6.828;2023-11-19T11:20:55;13.20;99.90
20839;DHT22;10580;51.092;6.828;2023-11-19T11:29:50;13.40;99.90
20839;DHT22;10580;51.092;6.828;2023-11-19T11:38:06;13.50;99.90
20839;DHT22;10580;51.092;6.828;2023-11-19T11:40:32;13.60;99.90
20839;DHT22;10580;51.092;6.828;2023-11-19T11:42:58;13.80;1.00
20839;DHT22;10580;51.092;6.828;2023-11-19T11:45:39;13.90;1.00
20839;DHT22;10580;51.092;6.828;2023-11-19T11:48:12;14.00;1.00
20839;DHT22;10580;51.092;6.828;2023-11-19T11:50:58;14.30;1.00
20839;DHT22;10580;51.092;6.828;2023-11-19T11:53:24;14.40;99.90
20839;DHT22;10580;51.092;6.828;2023-11-19T11:58:20;14.40;40.50
20839;DHT22;10580;51.092;6.828;2023-11-19T12:00:47;14.40;99.90
20839;DHT22;10580;51.092;6.828;2023-11-19T12:03:18;14.40;97.30
20839;DHT22;10580;51.092;6.828;2023-11-19T12:05:50;14.20;96.60
20839;DHT22;10580;51.092;6.828;2023-11-19T12:08:20;14.00;1.00
20839;DHT22;10580;51.092;6.828;2023-11-19T12:10:55;13.90;99.90
20839;DHT22;10580;51.092;6.828;2023-11-19T12:16:09;13.80;1.00
20839;DHT22;10580;51.092;6.828;2023-11-19T12:18:36;13.80;1.00
20839;DHT22;10580;51.092;6.828;2023-11-19T12:21:03;13.80;1.00
20839;DHT22;10580;51.092;6.828;2023-11-19T12:23:31;13.70;1.00
20839;DHT22;10580;51.092;6.828;2023-11-19T12:25:58;13.70;93.90
20839;DHT22;10580;51.092;6.828;2023-11-19T12:28:24;13.70;11.40
20839;DHT22;10580;51.092;6.828;2023-11-19T12:30:52;13.70;99.90
20839;DHT22;10580;51.092;6.828;2023-11-19T12:33:19;13.80;1.00
20839;DHT22;10580;51.092;6.828;2023-11-19T12:35:48;13.70;99.90
20839;DHT22;10580;51.092;6.828;2023-11-19T12:38:20;13.70;99.90
20839;DHT22;10580;51.092;6.828;2023-11-19T12:40:46;13.60;99.90
20839;DHT22;10580;51.092;6.828;2023-11-19T12:43:21;13.60;1.00
20839;DHT22;10580;51.092;6.828;2023-11-19T12:45:50;13.50;99.90
20839;DHT22;10580;51.092;6.828;2023-11-19T12:48:18;13.50;1.00
20839;DHT22;10580;51.092;6.828;2023-11-19T12:53:18;13.40;1.00
20839;DHT22;10580;51.092;6.828;2023-11-19T12:55:47;13.50;1.00
20839;DHT22;10580;51.092;6.828;2023-11-19T12:58:34;13.50;1.00
20839;DHT22;10580;51.092;6.828;2023-11-19T13:01:04;13.50;1.00
20839;DHT22;10580;51.092;6.828;2023-11-19T13:03:35;13.60;1.00
20839;DHT22;10580;51.092;6.828;2023-11-19T13:06:09;13.80;1.00
20839;DHT22;10580;51.092;6.828;2023-11-19T13:08:54;13.90;99.90
20839;DHT22;10580;51.092;6.828;2023-11-19T13:11:39;13.90;99.90
20839;DHT22;10580;51.092;6.828;2023-11-19T13:14:06;13.90;99.90
20839;DHT22;10580;51.092;6.828;2023-11-19T13:16:42;13.90;99.90
20839;DHT22;10580;51.092;6.828;2023-11-19T13:19:09;13.80;99.90
20839;DHT22;10580;51.092;6.828;2023-11-19T13:21:35;13.80;99.90
20839;DHT22;10580;51.092;6.828;2023-11-19T13:24:02;13.80;99.90
20839;DHT22;10580;51.092;6.828;2023-11-19T13:26:28;13.90;1.00
20839;DHT22;10580;51.092;6.828;2023-11-19T13:28:56;13.90;99.90
20839;DHT22;10580;51.092;6.828;2023-11-19T13:31:22;14.00;99.90
20839;DHT22;10580;51.092;6.828;2023-11-19T13:33:48;14.20;99.90
20839;DHT22;10580;51.092;6.828;2023-11-19T13:36:14;14.30;99.90
20839;DHT22;10580;51.092;6.828;2023-11-19T13:38:39;14.30;99.90
20839;DHT22;10580;51.092;6.828;2023-11-19T13:41:09;14.20;99.90
20839;DHT22;10580;51.092;6.828;2023-11-19T13:43:37;14.00;99.90
20839;DHT22;10580;51.092;6.828;2023-11-19T13:46:03;13.80;99.90
20839;DHT22;10580;51.092;6.828;2023-11-19T13:48:29;13.70;1.00
20839;DHT22;10580;51.092;6.828;2023-11-19T13:51:03;13.60;1.00
20839;DHT22;10580;51.092;6.828;2023-11-19T13:53:29;13.60;1.00
20839;DHT22;10580;51.092;6.828;2023-11-19T13:55:55;13.50;1.00
20839;DHT22;10580;51.092;6.828;2023-11-19T13:58:21;13.40;1.00
20839;DHT22;10580;51.092;6.828;2023-11-19T14:01:12;13.40;1.00
20839;DHT22;10580;51.092;6.828;2023-11-19T14:03:47;13.40;1.00
20839;DHT22;10580;51.092;6.828;2023-11-19T14:06:13;13.40;1.00
20839;DHT22;10580;51.092;6.828;2023-11-19T14:08:38;13.30;1.00
20839;DHT22;10580;51.092;6.828;2023-11-19T14:11:05;13.30;1.00
20839;DHT22;10580;51.092;6.828;2023-11-19T14:13:30;13.20;1.00
20839;DHT22;10580;51.092;6.828;2023-11-19T14:15:59;13.20;1.00
20839;DHT22;10580;51.092;6.828;2023-11-19T14:18:26;13.20;1.00
20839;DHT22;10580;51.092;6.828;2023-11-19T14:20:51;13.10;7.60
20839;DHT22;10580;51.092;6.828;2023-11-19T14:23:17;13.10;1.00
20839;DHT22;10580;51.092;6.828;2023-11-19T14:25:45;13.10;1.00
20839;DHT22;10580;51.092;6.828;2023-11-19T14:28:13;13.00;1.00
20839;DHT22;10580;51.092;6.828;2023-11-19T14:30:39;13.00;66.60
20839;DHT22;10580;51.092;6.828;2023-11-19T14:33:08;13.00;99.90
20839;DHT22;10580;51.092;6.828;2023-11-19T14:35:34;12.90;99.90
20839;DHT22;10580;51.092;6.828;2023-11-19T14:38:00;12.90;99.90
20839;DHT22;10580;51.092;6.828;2023-11-19T14:40:25;12.90;99.90
20839;DHT22;10580;51.092;6.828;2023-11-19T14:42:51;12.80;99.90
20839;DHT22;10580;51.092;6.828;2023-11-19T14:45:16;12.90;99.90
20839;DHT22;10580;51.092;6.828;2023-11-19T14:47:43;13.10;99.90
20839;DHT22;10580;51.092;6.828;2023-11-19T14:50:12;13.20;99.90
20839;DHT22;10580;51.092;6.828;2023-11-19T14:52:37;13.20;81.70
20839;DHT22;10580;51.092;6.828;2023-11-19T14:55:03;13.20;1.00
20839;DHT22;10580;51.092;6.828;2023-11-19T14:57:29;13.20;1.00
20839;DHT22;10580;51.092;6.828;2023-11-19T14:59:55;13.20;1.00
20839;DHT22;10580;51.092;6.828;2023-11-19T15:02:20;13.10;1.00
20839;DHT22;10580;51.092;6.828;2023-11-19T15:04:47;13.10;1.00
20839;DHT22;10580;51.092;6.828;2023-11-19T15:07:12;13.00;1.00
20839;DHT22;10580;51.092;6.828;2023-11-19T15:09:38;13.00;1.00
20839;DHT22;10580;51.092;6.828;2023-11-19T15:12:05;12.90;10.30
20839;DHT22;10580;51.092;6.828;2023-11-19T15:14:34;12.80;99.90
20839;DHT22;10580;51.092;6.828;2023-11-19T15:17:02;12.70;99.90
20839;DHT22;10580;51.092;6.828;2023-11-19T15:19:28;12.60;1.00
20839;DHT22;10580;51.092;6.828;2023-11-19T15:21:53;12.40;1.00
20839;DHT22;10580;51.092;6.828;2023-11-19T15:24:20;12.40;1.00
20839;DHT22;10580;51.092;6.828;2023-11-19T15:26:45;12.30;1.00
20839;DHT22;10580;51.092;6.828;2023-11-19T15:29:11;12.30;1.00
20839;DHT22;10580;51.092;6.828;2023-11-19T15:31:37;12.20;1.00
20839;DHT22;10580;51.092;6.828;2023-11-19T15:34:03;12.20;1.00
20839;DHT22;10580;51.092;6.828;2023-11-19T15:36:28;12.20;1.00
20839;DHT22;10580;51.092;6.828;2023-11-19T15:38:54;12.10;1.00
20839;DHT22;10580;51.092;6.828;2023-11-19T15:41:20;12.00;1.00
20839;DHT22;10580;51.092;6.828;2023-11-19T15:43:48;12.00;1.00
20839;DHT22;10580;51.092;6.828;2023-11-19T15:46:14;12.00;1.00
20839;DHT22;10580;51.092;6.828;2023-11-19T15:48:41;12.00;1.00
20839;DHT22;10580;51.092;6.828;2023-11-19T15:51:10;12.00;1.00
20839;DHT22;10580;51.092;6.828;2023-11-19T15:53:37;12.00;1.00
20839;DHT22;10580;51.092;6.828;2023-11-19T15:56:04;12.00;1.00
20839;DHT22;10580;51.092;6.828;2023-11-19T15:58:33;12.00;1.00